Time;durP1;ratioP1;P1;durP2;ratioP2;P2;SDS_P1;SDS_P2;PMS_P1;PMS_P2;Temp;Humidity;BMP_temperature;BMP_pressure;BME280_temperature;BME280_humidity;BME280_pressure;Samples;Min_cycle;Max_cycle;Signal;HPM_P1;HPM_P2
2022/05/27 00:01:09;;;;;;;0.70;0.60;;;;;;;;;;5068415;28;20476;-75
2022/05/27 00:03:36;;;;;;;0.70;0.70;;;;;;;;;;5053041;28;20447;-73
2022/05/27 00:06:04;;;;;;;0.70;0.70;;;;;;;;;;5052021;28;20849;-77
2022/05/27 00:08:32;;;;;;;0.80;0.73;;;;;;;;;;5052915;28;20412;-76
2022/05/27 00:10:59;;;;;;;0.70;0.70;;;;;;;;;;5036238;28;20463;-74
2022/05/27 00:13:26;;;;;;;0.80;0.70;;;;;;;;;;5052900;28;20430;-76
2022/05/27 00:15:53;;;;;;;0.70;0.70;;;;;;;;;;5054187;28;20484;-77
2022/05/27 00:18:22;;;;;;;0.73;0.70;;;;;;;;;;5058131;28;20452;-76
2022/05/27 00:20:48;;;;;;;0.70;0.60;;;;;;;;;;5073847;28;20554;-74
2022/05/27 00:23:15;;;;;;;0.70;0.60;;;;;;;;;;5056575;28;20958;-73
2022/05/27 00:25:43;;;;;;;0.70;0.60;;;;;;;;;;5074274;28;20419;-74
2022/05/27 00:28:10;;;;;;;0.80;0.70;;;;;;;;;;5075406;28;20423;-71
2022/05/27 00:30:37;;;;;;;0.80;0.77;;;;;;;;;;5074076;28;20494;-76
2022/05/27 00:33:05;;;;;;;0.70;0.60;;;;;;;;;;5072726;28;20420;-75
2022/05/27 00:35:34;;;;;;;0.80;0.80;;;;;;;;;;5056956;28;21041;-74
2022/05/27 00:38:00;;;;;;;0.70;0.60;;;;;;;;;;5054093;28;20428;-76
2022/05/27 00:40:33;;;;;;;0.70;0.60;;;;;;;;;;5051655;28;20504;-75
2022/05/27 00:43:00;;;;;;;0.70;0.70;;;;;;;;;;5053459;28;20466;-75
2022/05/27 00:45:27;;;;;;;0.70;0.60;;;;;;;;;;5054017;28;20468;-74
2022/05/27 00:47:55;;;;;;;0.80;0.80;;;;;;;;;;5051739;28;20537;-75
2022/05/27 00:50:27;;;;;;;0.80;0.80;;;;;;;;;;5071090;28;20444;-76
2022/05/27 00:52:56;;;;;;;0.80;0.70;;;;;;;;;;5054724;28;20502;-75
2022/05/27 00:55:25;;;;;;;0.70;0.60;;;;;;;;;;5073880;28;20490;-74
2022/05/27 00:57:53;;;;;;;0.70;0.60;;;;;;;;;;5056863;28;20443;-75
2022/05/27 01:00:23;;;;;;;0.80;0.80;;;;;;;;;;5060349;28;20543;-77
2022/05/27 01:02:50;;;;;;;0.70;0.70;;;;;;;;;;5062608;28;20797;-72
2022/05/27 01:05:20;;;;;;;0.70;0.63;;;;;;;;;;5056758;28;20439;-76
2022/05/27 01:07:50;;;;;;;0.80;0.80;;;;;;;;;;5055815;28;20682;-74
2022/05/27 01:10:20;;;;;;;0.80;0.73;;;;;;;;;;5055911;28;20541;-75
2022/05/27 01:13:07;;;;;;;0.70;0.70;;;;;;;;;;5056121;28;20426;-75
2022/05/27 01:15:45;;;;;;;0.70;0.70;;;;;;;;;;5056101;28;20481;-75
2022/05/27 01:20:18;;;;;;;0.70;0.70;;;;;;;;;;5066089;28;20527;-76
2022/05/27 01:21:16;;;;;;;0.70;0.60;;;;;;;;;;5079149;28;20485;-75
2022/05/27 01:24:08;;;;;;;0.80;0.70;;;;;;;;;;5075785;28;20464;-77
2022/05/27 01:26:50;;;;;;;0.70;0.70;;;;;;;;;;5076408;28;20454;-75
2022/05/27 01:29:46;;;;;;;0.70;0.60;;;;;;;;;;5073035;28;20436;-75
2022/05/27 01:32:16;;;;;;;0.70;0.63;;;;;;;;;;5057122;28;20424;-76
2022/05/27 01:34:52;;;;;;;0.70;0.60;;;;;;;;;;5056753;28;20866;-75
2022/05/27 01:37:24;;;;;;;0.80;0.73;;;;;;;;;;5059210;28;20472;-75
2022/05/27 01:39:56;;;;;;;0.70;0.70;;;;;;;;;;5076814;28;20473;-76
2022/05/27 01:42:29;;;;;;;0.70;0.60;;;;;;;;;;5073913;28;20968;-74
2022/05/27 01:44:59;;;;;;;0.80;0.70;;;;;;;;;;5056964;28;20424;-79
2022/05/27 01:47:31;;;;;;;0.70;0.60;;;;;;;;;;5047734;28;20878;-75
2022/05/27 01:50:04;;;;;;;0.80;0.80;;;;;;;;;;5059115;28;20551;-75
2022/05/27 01:52:36;;;;;;;0.80;0.70;;;;;;;;;;5075818;28;20444;-75
2022/05/27 01:55:07;;;;;;;0.70;0.70;;;;;;;;;;5055434;28;20467;-76
2022/05/27 01:57:37;;;;;;;0.70;0.67;;;;;;;;;;5063284;28;20839;-76
2022/05/27 02:00:10;;;;;;;0.80;0.70;;;;;;;;;;5058332;28;20449;-76
2022/05/27 02:02:42;;;;;;;0.70;0.70;;;;;;;;;;5054651;28;20465;-76
2022/05/27 02:05:13;;;;;;;0.70;0.70;;;;;;;;;;5057488;28;20419;-74
2022/05/27 02:07:43;;;;;;;0.80;0.70;;;;;;;;;;5057150;28;20947;-75
2022/05/27 02:10:13;;;;;;;0.70;0.63;;;;;;;;;;5057635;28;20433;-74
2022/05/27 02:12:47;;;;;;;0.70;0.70;;;;;;;;;;5039250;28;20443;-79
2022/05/27 02:15:18;;;;;;;2.60;1.37;;;;;;;;;;5056153;28;20453;-75
2022/05/27 02:17:50;;;;;;;0.70;0.60;;;;;;;;;;5055039;28;20401;-75
2022/05/27 02:20:22;;;;;;;0.70;0.63;;;;;;;;;;5075431;28;20437;-76
2022/05/27 02:22:55;;;;;;;0.70;0.70;;;;;;;;;;5075536;28;20445;-75
2022/05/27 02:25:28;;;;;;;0.70;0.70;;;;;;;;;;5075991;28;20438;-76
2022/05/27 02:27:58;;;;;;;0.70;0.70;;;;;;;;;;5076087;28;20454;-75
2022/05/27 02:30:31;;;;;;;0.70;0.70;;;;;;;;;;5075729;28;20462;-76
2022/05/27 02:36:03;;;;;;;0.70;0.70;;;;;;;;;;5074113;28;20457;-77
2022/05/27 02:38:34;;;;;;;0.70;0.70;;;;;;;;;;5074767;28;20446;-76
2022/05/27 02:41:04;;;;;;;0.80;0.80;;;;;;;;;;5076151;28;20462;-73
2022/05/27 02:43:39;;;;;;;0.70;0.70;;;;;;;;;;5075388;28;20424;-76
2022/05/27 02:46:11;;;;;;;0.70;0.60;;;;;;;;;;5054728;28;20766;-76
2022/05/27 02:48:42;;;;;;;0.70;0.60;;;;;;;;;;5059006;28;20439;-75
2022/05/27 02:51:16;;;;;;;0.70;0.70;;;;;;;;;;5058178;28;20492;-75
2022/05/27 02:53:45;;;;;;;0.70;0.70;;;;;;;;;;5077053;28;20500;-75
2022/05/27 02:56:14;;;;;;;0.70;0.70;;;;;;;;;;5075658;28;20469;-73
2022/05/27 02:58:41;;;;;;;0.70;0.70;;;;;;;;;;5071700;28;20456;-77
2022/05/27 03:01:15;;;;;;;0.70;0.70;;;;;;;;;;5069636;28;21075;-76
2022/05/27 03:03:43;;;;;;;0.70;0.60;;;;;;;;;;5054320;28;20423;-75
2022/05/27 03:06:25;;;;;;;0.70;0.60;;;;;;;;;;5054951;28;20517;-74
2022/05/27 03:08:57;;;;;;;0.70;0.70;;;;;;;;;;5051522;28;20884;-75
2022/05/27 03:11:26;;;;;;;0.70;0.60;;;;;;;;;;5054158;28;20941;-75
2022/05/27 03:14:03;;;;;;;0.70;0.60;;;;;;;;;;5052602;28;20523;-74
2022/05/27 03:16:35;;;;;;;0.70;0.60;;;;;;;;;;5053958;28;20475;-74
2022/05/27 03:19:10;;;;;;;0.70;0.60;;;;;;;;;;5062864;28;20542;-75
2022/05/27 03:21:44;;;;;;;0.80;0.77;;;;;;;;;;5057103;28;20511;-76
2022/05/27 03:24:15;;;;;;;0.70;0.60;;;;;;;;;;5072518;28;20544;-74
2022/05/27 03:26:51;;;;;;;0.70;0.60;;;;;;;;;;5055153;28;20547;-75
2022/05/27 03:29:23;;;;;;;0.70;0.60;;;;;;;;;;5070060;28;20438;-76
2022/05/27 03:31:52;;;;;;;0.70;0.60;;;;;;;;;;5070719;28;20527;-76
2022/05/27 03:34:23;;;;;;;0.80;0.70;;;;;;;;;;5065030;28;20837;-75
2022/05/27 03:36:52;;;;;;;0.70;0.70;;;;;;;;;;5042176;28;20835;-76
2022/05/27 03:39:21;;;;;;;0.70;0.60;;;;;;;;;;5057273;28;20437;-75
2022/05/27 03:41:50;;;;;;;0.70;0.70;;;;;;;;;;5073756;28;20470;-76
2022/05/27 03:44:18;;;;;;;0.70;0.60;;;;;;;;;;5073519;28;20992;-76
2022/05/27 03:46:47;;;;;;;0.70;0.60;;;;;;;;;;5071630;28;20458;-76
2022/05/27 03:49:13;;;;;;;0.70;0.63;;;;;;;;;;5047280;28;20448;-75
2022/05/27 03:51:46;;;;;;;0.73;0.70;;;;;;;;;;5070852;28;20452;-76
2022/05/27 03:54:14;;;;;;;0.70;0.60;;;;;;;;;;5036452;28;20447;-74
2022/05/27 03:56:42;;;;;;;0.80;0.77;;;;;;;;;;5037229;28;20436;-74
2022/05/27 03:59:10;;;;;;;0.70;0.70;;;;;;;;;;5054416;28;20949;-75
2022/05/27 04:01:37;;;;;;;0.70;0.60;;;;;;;;;;5036247;28;20506;-75
2022/05/27 04:04:06;;;;;;;0.70;0.60;;;;;;;;;;5053219;28;20482;-74
2022/05/27 04:06:33;;;;;;;0.70;0.60;;;;;;;;;;5036015;28;20559;-75
2022/05/27 04:09:02;;;;;;;0.70;0.70;;;;;;;;;;5053102;28;20952;-75
2022/05/27 04:11:29;;;;;;;0.70;0.70;;;;;;;;;;5052483;28;20436;-75
2022/05/27 04:13:56;;;;;;;0.70;0.70;;;;;;;;;;5054514;28;20538;-75
2022/05/27 04:16:25;;;;;;;0.70;0.70;;;;;;;;;;5036541;28;20808;-76
2022/05/27 04:18:52;;;;;;;0.70;0.60;;;;;;;;;;5059121;28;20466;-75
2022/05/27 04:21:19;;;;;;;0.70;0.70;;;;;;;;;;5056181;28;20463;-75
2022/05/27 04:23:45;;;;;;;0.70;0.60;;;;;;;;;;5074338;28;20506;-75
2022/05/27 04:26:14;;;;;;;0.70;0.60;;;;;;;;;;5072889;28;20451;-75
2022/05/27 04:28:41;;;;;;;0.70;0.60;;;;;;;;;;5073389;28;20427;-80
2022/05/27 04:31:08;;;;;;;0.70;0.60;;;;;;;;;;5054272;28;20453;-74
2022/05/27 04:33:36;;;;;;;0.70;0.60;;;;;;;;;;5072503;28;20444;-75
2022/05/27 04:36:04;;;;;;;0.70;0.60;;;;;;;;;;5072954;28;20551;-75
2022/05/27 04:38:32;;;;;;;0.70;0.60;;;;;;;;;;5072235;28;20422;-76
2022/05/27 04:40:58;;;;;;;0.70;0.60;;;;;;;;;;5072693;28;20477;-76
2022/05/27 04:43:27;;;;;;;0.70;0.60;;;;;;;;;;5072718;28;20469;-75
2022/05/27 04:45:54;;;;;;;0.70;0.60;;;;;;;;;;5055095;28;20433;-75
2022/05/27 04:48:21;;;;;;;0.70;0.60;;;;;;;;;;5069122;28;20542;-75
2022/05/27 04:50:48;;;;;;;0.70;0.70;;;;;;;;;;5055694;28;20461;-74
2022/05/27 04:53:15;;;;;;;0.70;0.60;;;;;;;;;;5055923;28;20475;-74
2022/05/27 04:55:42;;;;;;;0.70;0.60;;;;;;;;;;5073554;28;20459;-77
2022/05/27 04:58:11;;;;;;;0.70;0.70;;;;;;;;;;5064853;28;20449;-75
2022/05/27 05:00:41;;;;;;;0.70;0.60;;;;;;;;;;5053872;28;20530;-76
2022/05/27 05:03:12;;;;;;;0.70;0.60;;;;;;;;;;5051735;28;20956;-76
2022/05/27 05:05:39;;;;;;;0.70;0.60;;;;;;;;;;5043788;28;21036;-76
2022/05/27 05:08:07;;;;;;;0.70;0.70;;;;;;;;;;5040233;28;20443;-73
2022/05/27 05:10:35;;;;;;;0.70;0.70;;;;;;;;;;5057287;28;20884;-74
2022/05/27 05:13:02;;;;;;;0.80;0.70;;;;;;;;;;5052221;28;20476;-77
2022/05/27 05:15:29;;;;;;;0.70;0.60;;;;;;;;;;5052339;28;20954;-75
2022/05/27 05:17:59;;;;;;;0.70;0.60;;;;;;;;;;5053056;28;20447;-76
2022/05/27 05:20:27;;;;;;;0.70;0.60;;;;;;;;;;5070574;28;20447;-76
2022/05/27 05:22:54;;;;;;;0.90;0.90;;;;;;;;;;5057917;28;20506;-75
2022/05/27 05:25:23;;;;;;;0.70;0.60;;;;;;;;;;5070501;28;20484;-74
2022/05/27 05:27:50;;;;;;;0.70;0.70;;;;;;;;;;5056086;28;20440;-73
2022/05/27 05:30:18;;;;;;;0.70;0.63;;;;;;;;;;5072931;28;20414;-72
2022/05/27 05:32:44;;;;;;;0.70;0.60;;;;;;;;;;5071476;28;20443;-71
2022/05/27 05:35:13;;;;;;;0.70;0.60;;;;;;;;;;5070216;28;20520;-71
2022/05/27 05:37:39;;;;;;;0.63;0.60;;;;;;;;;;5070247;28;20550;-72
2022/05/27 05:40:07;;;;;;;0.70;0.60;;;;;;;;;;5052017;28;20441;-72
2022/05/27 05:42:34;;;;;;;0.70;0.60;;;;;;;;;;5053154;28;20473;-70
2022/05/27 05:45:05;;;;;;;0.70;0.60;;;;;;;;;;5056199;28;20467;-71
2022/05/27 05:47:32;;;;;;;0.70;0.60;;;;;;;;;;5039185;28;20540;-71
2022/05/27 05:49:59;;;;;;;0.70;0.70;;;;;;;;;;5084294;28;20594;-76
2022/05/27 05:52:27;;;;;;;0.70;0.60;;;;;;;;;;5066014;28;20540;-72
2022/05/27 05:54:54;;;;;;;0.70;0.60;;;;;;;;;;5075915;28;20763;-73
2022/05/27 05:57:21;;;;;;;0.80;0.80;;;;;;;;;;5058474;28;20443;-73
2022/05/27 05:59:49;;;;;;;0.70;0.60;;;;;;;;;;5075385;28;20463;-72
2022/05/27 06:02:15;;;;;;;0.70;0.70;;;;;;;;;;5062842;28;20475;-73
2022/05/27 06:04:42;;;;;;;0.67;0.60;;;;;;;;;;5056813;28;20883;-74
2022/05/27 06:07:11;;;;;;;0.70;0.60;;;;;;;;;;5038997;28;21071;-73
2022/05/27 06:09:41;;;;;;;0.70;0.67;;;;;;;;;;5054873;28;20414;-74
2022/05/27 06:12:08;;;;;;;0.70;0.60;;;;;;;;;;5056385;28;20809;-73
2022/05/27 06:14:35;;;;;;;0.70;0.60;;;;;;;;;;5056298;28;20453;-72
2022/05/27 06:17:05;;;;;;;0.70;0.60;;;;;;;;;;5055913;28;20431;-74
2022/05/27 06:19:31;;;;;;;0.70;0.60;;;;;;;;;;5067130;28;20800;-72
2022/05/27 06:22:01;;;;;;;0.70;0.60;;;;;;;;;;5076514;28;20464;-71
2022/05/27 06:24:28;;;;;;;0.70;0.70;;;;;;;;;;5074544;28;20435;-71
2022/05/27 06:26:57;;;;;;;0.67;0.60;;;;;;;;;;5075488;28;20428;-72
2022/05/27 06:34:54;;;;;;;0.60;0.60;;;;;;;;;;5059668;28;20436;-71
2022/05/27 06:37:24;;;;;;;0.70;0.60;;;;;;;;;;5058757;28;20468;-71
2022/05/27 06:39:52;;;;;;;0.63;0.57;;;;;;;;;;5076425;28;20478;-72
2022/05/27 06:42:22;;;;;;;0.67;0.60;;;;;;;;;;5074786;28;20934;-71
2022/05/27 06:45:04;;;;;;;0.70;0.60;;;;;;;;;;5076586;28;20428;-71
2022/05/27 06:47:31;;;;;;;0.70;0.60;;;;;;;;;;5075694;28;20415;-71
2022/05/27 06:49:58;;;;;;;0.70;0.70;;;;;;;;;;5076638;28;20432;-71
2022/05/27 06:52:25;;;;;;;0.70;0.60;;;;;;;;;;5061294;28;20506;-72
2022/05/27 06:54:52;;;;;;;0.70;0.60;;;;;;;;;;5056228;28;20839;-71
2022/05/27 06:57:21;;;;;;;0.60;0.60;;;;;;;;;;5056661;28;20779;-71
2022/05/27 06:59:48;;;;;;;0.70;0.70;;;;;;;;;;5070344;28;20798;-71
2022/05/27 07:02:17;;;;;;;0.70;0.60;;;;;;;;;;5066738;28;20510;-71
2022/05/27 07:04:45;;;;;;;0.60;0.60;;;;;;;;;;5065246;28;20885;-72
2022/05/27 07:07:12;;;;;;;0.60;0.60;;;;;;;;;;5054905;28;20858;-72
2022/05/27 07:09:39;;;;;;;0.70;0.60;;;;;;;;;;5054652;28;20442;-71
2022/05/27 07:12:07;;;;;;;0.70;0.60;;;;;;;;;;5056232;28;20453;-73
2022/05/27 07:14:39;;;;;;;0.70;0.70;;;;;;;;;;5069577;28;20492;-71
2022/05/27 07:17:06;;;;;;;0.70;0.70;;;;;;;;;;5062621;28;20434;-71
2022/05/27 07:19:36;;;;;;;0.70;0.70;;;;;;;;;;5077283;28;20837;-73
2022/05/27 07:22:04;;;;;;;0.70;0.70;;;;;;;;;;5077645;28;20455;-73
2022/05/27 07:24:31;;;;;;;0.70;0.60;;;;;;;;;;5071049;28;20437;-73
2022/05/27 07:26:58;;;;;;;0.70;0.70;;;;;;;;;;5074841;28;20904;-72
2022/05/27 07:29:25;;;;;;;0.70;0.60;;;;;;;;;;5071091;28;20423;-72
2022/05/27 07:31:53;;;;;;;0.70;0.60;;;;;;;;;;5073407;28;20848;-72
2022/05/27 07:34:21;;;;;;;0.63;0.60;;;;;;;;;;5073133;28;20532;-72
2022/05/27 07:36:47;;;;;;;0.70;0.60;;;;;;;;;;5073188;28;20505;-73
2022/05/27 07:39:16;;;;;;;0.70;0.60;;;;;;;;;;5073131;28;20436;-72
2022/05/27 07:41:44;;;;;;;0.67;0.60;;;;;;;;;;5071599;28;20456;-72
2022/05/27 07:44:13;;;;;;;0.70;0.60;;;;;;;;;;5074165;28;20506;-72
2022/05/27 07:46:41;;;;;;;0.63;0.60;;;;;;;;;;5072786;28;20440;-72
2022/05/27 07:49:09;;;;;;;0.70;0.60;;;;;;;;;;5073365;28;20428;-73
2022/05/27 07:51:59;;;;;;;0.70;0.60;;;;;;;;;;5073931;28;20973;-72
2022/05/27 07:54:26;;;;;;;0.70;0.60;;;;;;;;;;5073259;28;20774;-72
2022/05/27 07:56:53;;;;;;;0.70;0.60;;;;;;;;;;5074134;28;20960;-73
2022/05/27 07:59:20;;;;;;;0.70;0.60;;;;;;;;;;5071700;28;20454;-72
2022/05/27 08:01:47;;;;;;;0.70;0.70;;;;;;;;;;5069177;28;20469;-72
2022/05/27 08:04:15;;;;;;;0.70;0.70;;;;;;;;;;5073463;28;20557;-72
2022/05/27 08:06:42;;;;;;;0.70;0.60;;;;;;;;;;5072753;28;20459;-72
2022/05/27 08:09:13;;;;;;;0.70;0.60;;;;;;;;;;5074374;28;20413;-72
2022/05/27 08:11:39;;;;;;;0.70;0.60;;;;;;;;;;5073129;28;20541;-73
2022/05/27 08:14:09;;;;;;;0.70;0.70;;;;;;;;;;5070952;28;20568;-73
2022/05/27 08:16:37;;;;;;;0.70;0.60;;;;;;;;;;5071623;28;20871;-73
2022/05/27 08:19:04;;;;;;;0.70;0.67;;;;;;;;;;5073785;28;20510;-72
2022/05/27 08:21:36;;;;;;;0.70;0.60;;;;;;;;;;5073121;28;20975;-72
2022/05/27 08:24:03;;;;;;;0.70;0.67;;;;;;;;;;5072567;28;21041;-71
2022/05/27 08:26:30;;;;;;;0.70;0.60;;;;;;;;;;5072823;28;20441;-71
2022/05/27 08:28:56;;;;;;;0.70;0.60;;;;;;;;;;5073252;28;20615;-72
2022/05/27 08:31:24;;;;;;;0.70;0.60;;;;;;;;;;5069112;28;20447;-70
2022/05/27 08:39:28;;;;;;;0.70;0.60;;;;;;;;;;5072186;28;21027;-71
2022/05/27 08:42:04;;;;;;;0.70;0.70;;;;;;;;;;5072597;28;20432;-71
2022/05/27 08:44:36;;;;;;;0.70;0.60;;;;;;;;;;5056041;28;20825;-70
2022/05/27 08:47:07;;;;;;;0.80;0.70;;;;;;;;;;5053644;28;20826;-71
2022/05/27 08:49:35;;;;;;;0.70;0.60;;;;;;;;;;5073658;28;20430;-70
2022/05/27 08:52:08;;;;;;;0.70;0.60;;;;;;;;;;5072111;28;20550;-72
2022/05/27 08:54:37;;;;;;;0.70;0.60;;;;;;;;;;5073425;28;20529;-70
2022/05/27 08:59:52;;;;;;;1.93;1.83;;;;;;;;;;5063395;28;20944;-71
2022/05/27 09:02:25;;;;;;;0.70;0.70;;;;;;;;;;5070282;28;20461;-70
2022/05/27 09:04:56;;;;;;;0.70;0.60;;;;;;;;;;5070346;28;20427;-70
2022/05/27 09:07:30;;;;;;;0.70;0.70;;;;;;;;;;5071493;28;20467;-70
2022/05/27 09:09:57;;;;;;;0.70;0.60;;;;;;;;;;5067201;28;20945;-70
2022/05/27 09:12:29;;;;;;;0.70;0.60;;;;;;;;;;5057750;28;20484;-71
2022/05/27 09:14:59;;;;;;;0.80;0.70;;;;;;;;;;5050979;28;20447;-71
2022/05/27 09:17:37;;;;;;;0.80;0.70;;;;;;;;;;5052532;28;20407;-71
2022/05/27 09:20:08;;;;;;;0.80;0.80;;;;;;;;;;5063444;28;20470;-71
2022/05/27 09:22:41;;;;;;;0.70;0.60;;;;;;;;;;5058066;28;20483;-70
2022/05/27 09:25:15;;;;;;;0.70;0.60;;;;;;;;;;5060010;28;20379;-71
2022/05/27 09:27:46;;;;;;;0.70;0.60;;;;;;;;;;5057584;28;20412;-72
2022/05/27 09:30:14;;;;;;;0.70;0.60;;;;;;;;;;5056814;28;20469;-73
2022/05/27 09:32:47;;;;;;;0.70;0.70;;;;;;;;;;5056401;28;20431;-72
2022/05/27 09:35:16;;;;;;;0.70;0.60;;;;;;;;;;5057617;28;20947;-73
2022/05/27 09:38:05;;;;;;;0.70;0.67;;;;;;;;;;5063072;28;20439;-71
2022/05/27 09:40:35;;;;;;;0.70;0.70;;;;;;;;;;5071799;28;20419;-72
2022/05/27 09:43:25;;;;;;;0.70;0.70;;;;;;;;;;5056576;28;20463;-73
2022/05/27 09:45:54;;;;;;;0.70;0.70;;;;;;;;;;5056745;28;20412;-73
2022/05/27 09:48:21;;;;;;;0.80;0.80;;;;;;;;;;5085521;28;20462;-73
2022/05/27 09:50:48;;;;;;;0.70;0.60;;;;;;;;;;5075034;28;20521;-73
2022/05/27 09:53:18;;;;;;;0.70;0.60;;;;;;;;;;5075466;28;20410;-73
2022/05/27 09:55:47;;;;;;;0.70;0.60;;;;;;;;;;5075500;28;20455;-73
2022/05/27 09:58:21;;;;;;;0.73;0.67;;;;;;;;;;5075890;28;20469;-73
2022/05/27 10:00:49;;;;;;;0.70;0.60;;;;;;;;;;5074230;28;20982;-74
2022/05/27 10:03:24;;;;;;;0.70;0.60;;;;;;;;;;5058500;28;20490;-74
2022/05/27 10:05:52;;;;;;;0.73;0.63;;;;;;;;;;5071169;28;20470;-73
2022/05/27 10:08:31;;;;;;;0.70;0.60;;;;;;;;;;5076429;28;20481;-74
2022/05/27 10:11:05;;;;;;;0.70;0.60;;;;;;;;;;5048633;28;20493;-74
2022/05/27 10:13:34;;;;;;;0.70;0.60;;;;;;;;;;5077959;28;20469;-75
2022/05/27 10:16:08;;;;;;;0.70;0.60;;;;;;;;;;5076893;28;21337;-75
2022/05/27 10:18:35;;;;;;;0.70;0.50;;;;;;;;;;5067778;28;20449;-75
2022/05/27 10:21:03;;;;;;;0.70;0.60;;;;;;;;;;5057143;28;20443;-74
2022/05/27 10:23:34;;;;;;;0.70;0.60;;;;;;;;;;5073530;28;20465;-76
2022/05/27 10:26:18;;;;;;;0.70;0.50;;;;;;;;;;5073092;28;20458;-78
2022/05/27 10:28:54;;;;;;;0.70;0.50;;;;;;;;;;5056208;28;20475;-76
2022/05/27 10:31:21;;;;;;;0.70;0.50;;;;;;;;;;5074814;28;20426;-76
2022/05/27 10:33:48;;;;;;;0.70;0.60;;;;;;;;;;5057068;28;20430;-77
2022/05/27 10:36:33;;;;;;;0.70;0.60;;;;;;;;;;5056264;28;20471;-75
2022/05/27 10:39:03;;;;;;;0.70;0.60;;;;;;;;;;5055290;28;20412;-78
2022/05/27 10:41:37;;;;;;;0.70;0.60;;;;;;;;;;5054496;28;20489;-79
2022/05/27 10:44:13;;;;;;;0.70;0.60;;;;;;;;;;5054418;28;20452;-76
2022/05/27 10:46:44;;;;;;;0.70;0.50;;;;;;;;;;5054127;28;20448;-78
2022/05/27 10:49:21;;;;;;;0.70;0.60;;;;;;;;;;5063649;28;20451;-76
2022/05/27 10:51:55;;;;;;;0.70;0.67;;;;;;;;;;5060826;28;20467;-76
2022/05/27 10:54:43;;;;;;;0.70;0.60;;;;;;;;;;5070965;28;20458;-76
2022/05/27 11:03:00;;;;;;;0.70;0.60;;;;;;;;;;5065895;28;20470;-78
2022/05/27 11:05:34;;;;;;;0.70;0.60;;;;;;;;;;5065721;28;20482;-76
2022/05/27 11:08:08;;;;;;;1.10;1.00;;;;;;;;;;5060477;28;20494;-76
2022/05/27 11:10:40;;;;;;;0.70;0.60;;;;;;;;;;5065056;28;20940;-77
2022/05/27 11:16:11;;;;;;;0.73;0.60;;;;;;;;;;5066432;28;20983;-75
2022/05/27 11:18:51;;;;;;;0.80;0.70;;;;;;;;;;5071406;28;20440;-75
2022/05/27 11:21:35;;;;;;;0.80;0.70;;;;;;;;;;5069987;28;20877;-75
2022/05/27 11:24:13;;;;;;;0.80;0.73;;;;;;;;;;5075936;28;20452;-76
2022/05/27 11:26:46;;;;;;;0.80;0.70;;;;;;;;;;5058259;28;20426;-76
2022/05/27 11:29:28;;;;;;;0.80;0.80;;;;;;;;;;5053855;28;20451;-76
2022/05/27 11:32:01;;;;;;;0.80;0.70;;;;;;;;;;5053453;28;20426;-76
2022/05/27 11:34:31;;;;;;;0.77;0.70;;;;;;;;;;5053673;28;20452;-76
2022/05/27 11:37:16;;;;;;;0.70;0.63;;;;;;;;;;5056158;28;20459;-76
2022/05/27 11:40:02;;;;;;;0.80;0.70;;;;;;;;;;5053020;28;20780;-75
2022/05/27 11:42:38;;;;;;;0.70;0.60;;;;;;;;;;5053432;28;20515;-74
2022/05/27 11:45:11;;;;;;;0.80;0.70;;;;;;;;;;5053393;28;20563;-74
2022/05/27 11:47:55;;;;;;;0.80;0.70;;;;;;;;;;5062248;28;20824;-74
2022/05/27 11:50:27;;;;;;;0.80;0.70;;;;;;;;;;5073088;28;20398;-76
2022/05/27 11:53:03;;;;;;;0.80;0.70;;;;;;;;;;5074507;28;20382;-75
2022/05/27 11:55:47;;;;;;;0.80;0.77;;;;;;;;;;5074358;28;20378;-76
2022/05/27 11:58:19;;;;;;;0.80;0.60;;;;;;;;;;5073536;28;20435;-73
2022/05/27 12:00:48;;;;;;;0.80;0.70;;;;;;;;;;5074559;28;20413;-75
2022/05/27 12:03:19;;;;;;;0.70;0.70;;;;;;;;;;5074622;28;20415;-75
2022/05/27 12:05:48;;;;;;;0.80;0.60;;;;;;;;;;5063426;28;20819;-74
2022/05/27 12:08:21;;;;;;;0.80;0.70;;;;;;;;;;5053355;28;20456;-75
2022/05/27 12:10:50;;;;;;;1.00;0.83;;;;;;;;;;5055147;28;20478;-75
2022/05/27 12:13:28;;;;;;;0.70;0.60;;;;;;;;;;5057277;28;20446;-75
2022/05/27 12:15:58;;;;;;;0.80;0.70;;;;;;;;;;5075199;28;20486;-75
2022/05/27 12:18:27;;;;;;;0.70;0.60;;;;;;;;;;5071980;28;20797;-74
2022/05/27 12:20:57;;;;;;;0.70;0.70;;;;;;;;;;5072591;28;20793;-75
2022/05/27 12:23:28;;;;;;;0.70;0.60;;;;;;;;;;5073199;28;20475;-73
2022/05/27 12:25:57;;;;;;;0.70;0.60;;;;;;;;;;5076376;28;20429;-76
2022/05/27 12:28:27;;;;;;;0.70;0.60;;;;;;;;;;5054509;28;20412;-73
2022/05/27 12:30:55;;;;;;;0.73;0.60;;;;;;;;;;5053606;28;20744;-76
2022/05/27 12:33:24;;;;;;;0.70;0.60;;;;;;;;;;5057735;28;20413;-74
2022/05/27 12:35:54;;;;;;;0.70;0.60;;;;;;;;;;5071395;28;20462;-72
2022/05/27 12:38:23;;;;;;;0.70;0.60;;;;;;;;;;5073149;28;20427;-75
2022/05/27 12:40:51;;;;;;;0.70;0.60;;;;;;;;;;5075082;28;20431;-75
2022/05/27 12:43:39;;;;;;;0.70;0.60;;;;;;;;;;5073856;28;20427;-74
2022/05/27 12:46:20;;;;;;;0.70;0.60;;;;;;;;;;5074758;28;20435;-73
2022/05/27 12:48:49;;;;;;;0.80;0.60;;;;;;;;;;5053180;28;20500;-78
2022/05/27 12:51:37;;;;;;;0.80;0.70;;;;;;;;;;5067601;28;20476;-74
2022/05/27 12:54:04;;;;;;;0.70;0.60;;;;;;;;;;5056641;28;20436;-72
2022/05/27 13:02:49;;;;;;;0.70;0.60;;;;;;;;;;5052786;28;20481;-76
2022/05/27 13:05:17;;;;;;;0.70;0.60;;;;;;;;;;5035414;28;20464;-76
2022/05/27 13:07:45;;;;;;;0.70;0.60;;;;;;;;;;5051594;28;20567;-75
2022/05/27 13:10:32;;;;;;;0.70;0.60;;;;;;;;;;5053559;28;20447;-73
2022/05/27 13:13:01;;;;;;;0.70;0.60;;;;;;;;;;5052271;28;20810;-72
2022/05/27 13:15:31;;;;;;;0.70;0.60;;;;;;;;;;5050713;28;20783;-77
2022/05/27 13:18:08;;;;;;;0.70;0.60;;;;;;;;;;5052680;28;20420;-74
2022/05/27 13:20:40;;;;;;;0.80;0.70;;;;;;;;;;5052353;28;20944;-74
2022/05/27 13:23:11;;;;;;;0.70;0.60;;;;;;;;;;5035847;28;20440;-72
2022/05/27 13:25:39;;;;;;;0.80;0.70;;;;;;;;;;5052951;28;20464;-73
2022/05/27 13:28:09;;;;;;;0.70;0.60;;;;;;;;;;5053591;28;20440;-74
2022/05/27 13:30:50;;;;;;;0.70;0.60;;;;;;;;;;5051831;28;20992;-74
2022/05/27 13:33:19;;;;;;;0.80;0.70;;;;;;;;;;5063597;28;20436;-74
2022/05/27 13:35:47;;;;;;;0.70;0.60;;;;;;;;;;5052731;28;20881;-74
2022/05/27 13:38:21;;;;;;;0.70;0.60;;;;;;;;;;5052665;28;20416;-74
2022/05/27 13:40:48;;;;;;;0.70;0.60;;;;;;;;;;5052156;28;20502;-73
2022/05/27 13:43:19;;;;;;;0.70;0.70;;;;;;;;;;5053548;28;20493;-76
2022/05/27 13:45:49;;;;;;;0.80;0.80;;;;;;;;;;5053694;28;20455;-73
2022/05/27 13:48:20;;;;;;;0.70;0.60;;;;;;;;;;5055576;28;20440;-76
2022/05/27 13:50:50;;;;;;;0.70;0.60;;;;;;;;;;5056031;28;20478;-75
2022/05/27 13:53:22;;;;;;;0.70;0.50;;;;;;;;;;5036686;28;20440;-75
2022/05/27 13:55:54;;;;;;;0.80;0.67;;;;;;;;;;5051897;28;20420;-75
2022/05/27 13:58:22;;;;;;;0.70;0.60;;;;;;;;;;5052021;28;20444;-75
2022/05/27 14:00:49;;;;;;;0.80;0.73;;;;;;;;;;5049887;28;20505;-76
2022/05/27 14:03:26;;;;;;;0.80;0.70;;;;;;;;;;5050712;28;20436;-74
2022/05/27 14:06:00;;;;;;;0.80;0.60;;;;;;;;;;5054258;28;20568;-75
2022/05/27 14:08:38;;;;;;;0.70;0.60;;;;;;;;;;5054390;28;20415;-76
2022/05/27 14:11:06;;;;;;;0.77;0.67;;;;;;;;;;5037390;28;20474;-75
2022/05/27 14:13:37;;;;;;;0.73;0.60;;;;;;;;;;5053739;28;20486;-73
2022/05/27 14:16:08;;;;;;;0.70;0.60;;;;;;;;;;5055663;28;20443;-73
2022/05/27 14:18:35;;;;;;;0.80;0.60;;;;;;;;;;5055990;28;20459;-74
2022/05/27 14:23:53;;;;;;;0.70;0.70;;;;;;;;;;5055634;28;20835;-73
2022/05/27 14:26:21;;;;;;;0.77;0.63;;;;;;;;;;5055066;28;20492;-73
2022/05/27 14:28:49;;;;;;;0.80;0.70;;;;;;;;;;5037883;28;20472;-72
2022/05/27 14:31:18;;;;;;;0.70;0.60;;;;;;;;;;5055142;28;20441;-75
2022/05/27 14:33:46;;;;;;;0.70;0.60;;;;;;;;;;5068106;28;20492;-74
2022/05/27 14:36:15;;;;;;;0.80;0.70;;;;;;;;;;5076206;28;20446;-75
2022/05/27 14:38:47;;;;;;;0.80;0.60;;;;;;;;;;5078843;28;20411;-76
2022/05/27 14:41:16;;;;;;;0.80;0.70;;;;;;;;;;5073262;28;20485;-77
2022/05/27 14:43:50;;;;;;;0.70;0.60;;;;;;;;;;5069791;28;20543;-73
2022/05/27 14:46:18;;;;;;;0.80;0.70;;;;;;;;;;5053730;28;20537;-75
2022/05/27 14:48:46;;;;;;;0.70;0.50;;;;;;;;;;5058067;28;20811;-75
2022/05/27 14:51:17;;;;;;;0.70;0.60;;;;;;;;;;5060456;28;20562;-74
2022/05/27 14:53:45;;;;;;;0.70;0.60;;;;;;;;;;5074138;28;20919;-73
2022/05/27 14:56:17;;;;;;;0.80;0.70;;;;;;;;;;5064411;28;20817;-74
2022/05/27 14:58:44;;;;;;;0.80;0.70;;;;;;;;;;5074134;28;20505;-74
2022/05/27 15:01:17;;;;;;;0.70;0.63;;;;;;;;;;5074680;28;20648;-72
2022/05/27 15:04:04;;;;;;;0.70;0.70;;;;;;;;;;5074074;28;20500;-73
2022/05/27 15:06:36;;;;;;;0.70;0.67;;;;;;;;;;5066626;28;20471;-73
2022/05/27 15:09:07;;;;;;;0.80;0.70;;;;;;;;;;5073871;28;20857;-72
2022/05/27 15:11:37;;;;;;;0.80;0.63;;;;;;;;;;5072648;28;20502;-73
2022/05/27 15:14:19;;;;;;;0.70;0.60;;;;;;;;;;5072726;28;20435;-73
2022/05/27 15:16:52;;;;;;;0.70;0.50;;;;;;;;;;5071910;28;20531;-75
2022/05/27 15:19:19;;;;;;;0.70;0.60;;;;;;;;;;5072133;28;20550;-74
2022/05/27 15:21:51;;;;;;;0.70;0.70;;;;;;;;;;5055418;28;20550;-74
2022/05/27 15:24:20;;;;;;;0.70;0.60;;;;;;;;;;5053716;28;20447;-73
2022/05/27 15:35:14;;;;;;;0.70;0.60;;;;;;;;;;5056415;28;20428;-75
2022/05/27 15:37:46;;;;;;;0.70;0.67;;;;;;;;;;5057450;28;20477;-73
2022/05/27 15:40:13;;;;;;;0.80;0.70;;;;;;;;;;5059896;28;20859;-73
2022/05/27 15:42:45;;;;;;;0.80;0.70;;;;;;;;;;5053220;28;20452;-73
2022/05/27 15:45:12;;;;;;;0.80;0.70;;;;;;;;;;5054375;28;20497;-75
2022/05/27 15:47:39;;;;;;;0.70;0.60;;;;;;;;;;5054166;28;20547;-74